SVA117 OEJN-EGLL
Flight info
| Callsign | SVA117 |
|---|---|
| Flight time | N/A |
| Altitude | 36000 |
| Route | MIGDA L677 CVO L617 TANSA UL613 AMAXI/N0484F380 UL613 YNN UL611 TUMBO DCT OVVER DCT RODON DCT VAKSU DCT SPL DCT ROTAR DCT SUXAN DCT RONAG DCT ELMUR DCT RIPUS DCT DITON DCT HOC DCT LUL DCT RLP DCT ROTSI DCT KOTUN DCT NINAL DCT ABNUR DCT DIMAL DCT ALESO |
| Aircraft | B77W/H-SDE1E2E3FGHIJ2J3J4J5M1RWXY/LB1D1 |
Departure
| Time | 2026-04-27 08:09 |
|---|---|
| Airport | King Abdulaziz International Airport (OEJN) |
Arrival
| Time | N/A |
|---|---|
| Airport | London Heathrow Airport (EGLL) |
| Time | Latitude | Longitude | Altitude | Speed | Heading |
|---|---|---|---|---|---|
| 2026-04-27 07:57 | 21.66323 | 39.17113 | 46 ft | 0 kts | 103° |
| 2026-04-27 08:02 | 21.66326 | 39.17099 | 48 ft | 7 kts | 103° |
| 2026-04-27 08:02 | 21.66339 | 39.17044 | 42 ft | 8 kts | 120° |
| 2026-04-27 08:02 | 21.66384 | 39.17020 | 42 ft | 8 kts | 191° |
| 2026-04-27 08:02 | 21.66405 | 39.17024 | 45 ft | 0 kts | 189° |
| 2026-04-27 08:05 | 21.66402 | 39.17024 | 45 ft | 2 kts | 189° |
| 2026-04-27 08:06 | 21.66359 | 39.17011 | 43 ft | 11 kts | 204° |
| 2026-04-27 08:06 | 21.66291 | 39.16933 | 45 ft | 18 kts | 240° |
| 2026-04-27 08:06 | 21.66229 | 39.16791 | 43 ft | 24 kts | 244° |
| 2026-04-27 08:06 | 21.66177 | 39.16630 | 41 ft | 14 kts | 252° |
| 2026-04-27 08:07 | 21.66149 | 39.16530 | 40 ft | 10 kts | 256° |
| 2026-04-27 08:07 | 21.66166 | 39.16484 | 39 ft | 9 kts | 313° |
| 2026-04-27 08:07 | 21.66240 | 39.16439 | 39 ft | 15 kts | 338° |
| 2026-04-27 08:07 | 21.66272 | 39.16426 | 39 ft | 0 kts | 339° |
| 2026-04-27 08:08 | 21.66325 | 39.16404 | 40 ft | 37 kts | 339° |
| 2026-04-27 08:08 | 21.66820 | 39.16209 | 42 ft | 115 kts | 340° |
| 2026-04-27 08:08 | 21.67798 | 39.15827 | 39 ft | 182 kts | 340° |
| 2026-04-27 08:09 | 21.69126 | 39.15282 | 39 ft | 223 kts | 337° |
| 2026-04-27 08:09 | 21.70612 | 39.14649 | 543 ft | 228 kts | 338° |
| 2026-04-27 08:09 | 21.72059 | 39.13989 | 1603 ft | 225 kts | 338° |
| 2026-04-27 08:09 | 21.73491 | 39.13360 | 2666 ft | 222 kts | 337° |
| 2026-04-27 08:10 | 21.74975 | 39.12714 | 3015 ft | 236 kts | 339° |
| 2026-04-27 08:10 | 21.76558 | 39.12070 | 3386 ft | 250 kts | 340° |
| 2026-04-27 08:10 | 21.78260 | 39.11414 | 3655 ft | 268 kts | 342° |
| 2026-04-27 08:10 | 21.80051 | 39.10804 | 4285 ft | 273 kts | 343° |
| 2026-04-27 08:11 | 21.81870 | 39.10188 | 4757 ft | 282 kts | 343° |
| 2026-04-27 08:11 | 21.83749 | 39.09532 | 5346 ft | 286 kts | 341° |
| 2026-04-27 08:11 | 21.85638 | 39.08803 | 5775 ft | 287 kts | 339° |
| 2026-04-27 08:11 | 21.87501 | 39.08027 | 6180 ft | 286 kts | 337° |
| 2026-04-27 08:12 | 21.89352 | 39.07205 | 6166 ft | 296 kts | 340° |
| 2026-04-27 08:12 | 21.91274 | 39.06430 | 6026 ft | 292 kts | 337° |
| 2026-04-27 08:12 | 21.93119 | 39.05566 | 5952 ft | 286 kts | 335° |
| 2026-04-27 08:12 | 21.94914 | 39.04697 | 5899 ft | 280 kts | 336° |
| 2026-04-27 08:13 | 21.96686 | 39.03851 | 6101 ft | 279 kts | 336° |
| 2026-04-27 08:13 | 21.98484 | 39.02993 | 6669 ft | 284 kts | 335° |
| 2026-04-27 08:13 | 22.00303 | 39.02126 | 7210 ft | 289 kts | 334° |
| 2026-04-27 08:13 | 22.02171 | 39.01234 | 7684 ft | 297 kts | 334° |
| 2026-04-27 08:14 | 22.04077 | 39.00322 | 8252 ft | 301 kts | 334° |
| 2026-04-27 08:14 | 22.05996 | 38.99407 | 8888 ft | 303 kts | 333° |
| 2026-04-27 08:14 | 22.07942 | 38.98478 | 9429 ft | 308 kts | 333° |
| 2026-04-27 08:14 | 22.09924 | 38.97531 | 9936 ft | 313 kts | 333° |
| 2026-04-27 08:15 | 22.11947 | 38.96562 | 10265 ft | 327 kts | 333° |
| 2026-04-27 08:15 | 22.14084 | 38.95535 | 10398 ft | 346 kts | 333° |
| 2026-04-27 08:15 | 22.16343 | 38.94449 | 10549 ft | 365 kts | 333° |
| 2026-04-27 08:15 | 22.18692 | 38.93321 | 10697 ft | 383 kts | 333° |
| 2026-04-27 08:16 | 22.21186 | 38.92125 | 10930 ft | 398 kts | 333° |
| 2026-04-27 08:16 | 22.23751 | 38.90897 | 11371 ft | 407 kts | 333° |
| 2026-04-27 08:16 | 22.26363 | 38.89648 | 11914 ft | 411 kts | 333° |
| 2026-04-27 08:16 | 22.28983 | 38.88395 | 12534 ft | 414 kts | 333° |
| 2026-04-27 08:17 | 22.31627 | 38.87128 | 13149 ft | 417 kts | 332° |
| 2026-04-27 08:17 | 22.34294 | 38.85848 | 13724 ft | 421 kts | 332° |
| 2026-04-27 08:17 | 22.36986 | 38.84555 | 14200 ft | 425 kts | 332° |
| 2026-04-27 08:17 | 22.39704 | 38.83249 | 14783 ft | 426 kts | 332° |
| 2026-04-27 08:18 | 22.42418 | 38.81945 | 15419 ft | 427 kts | 332° |
| 2026-04-27 08:18 | 22.45127 | 38.80643 | 16002 ft | 428 kts | 331° |
| 2026-04-27 08:18 | 22.47860 | 38.79328 | 16566 ft | 430 kts | 331° |
| 2026-04-27 08:18 | 22.50594 | 38.78011 | 17161 ft | 431 kts | 331° |
| 2026-04-27 08:19 | 22.53310 | 38.76703 | 17716 ft | 433 kts | 331° |
| 2026-04-27 08:19 | 22.56068 | 38.75374 | 18283 ft | 435 kts | 331° |
| 2026-04-27 08:19 | 22.58839 | 38.74038 | 18755 ft | 437 kts | 331° |
| 2026-04-27 08:19 | 22.61619 | 38.72697 | 19165 ft | 440 kts | 330° |
| 2026-04-27 08:20 | 22.64442 | 38.71336 | 19525 ft | 445 kts | 331° |
| 2026-04-27 08:20 | 22.67306 | 38.70013 | 19914 ft | 450 kts | 332° |
| 2026-04-27 08:20 | 22.69233 | 38.69153 | 20188 ft | 452 kts | 332° |
| 2026-04-27 08:20 | 22.72160 | 38.67869 | 20596 ft | 455 kts | 332° |
| 2026-04-27 08:21 | 22.75105 | 38.66582 | 20972 ft | 459 kts | 332° |
| 2026-04-27 08:21 | 22.78090 | 38.65274 | 21336 ft | 463 kts | 332° |
| 2026-04-27 08:21 | 22.81084 | 38.63955 | 21700 ft | 466 kts | 332° |
| 2026-04-27 08:21 | 22.84101 | 38.62619 | 22057 ft | 470 kts | 332° |
| 2026-04-27 08:22 | 22.87144 | 38.61268 | 22421 ft | 473 kts | 332° |
| 2026-04-27 08:22 | 22.90200 | 38.59910 | 22764 ft | 476 kts | 332° |
| 2026-04-27 08:22 | 22.93274 | 38.58540 | 23077 ft | 480 kts | 332° |
| 2026-04-27 08:22 | 22.96341 | 38.57174 | 23409 ft | 483 kts | 332° |
| 2026-04-27 08:23 | 22.99454 | 38.55786 | 23685 ft | 485 kts | 332° |
| 2026-04-27 08:23 | 23.02587 | 38.54390 | 23995 ft | 487 kts | 331° |
| 2026-04-27 08:23 | 23.05722 | 38.52993 | 24330 ft | 487 kts | 331° |
| 2026-04-27 08:23 | 23.08875 | 38.51587 | 24659 ft | 488 kts | 331° |
| 2026-04-27 08:24 | 23.12031 | 38.50179 | 24920 ft | 490 kts | 331° |
| 2026-04-27 08:24 | 23.15152 | 38.48784 | 25173 ft | 492 kts | 331° |
| 2026-04-27 08:24 | 23.18318 | 38.47369 | 25427 ft | 493 kts | 331° |
| 2026-04-27 08:24 | 23.21502 | 38.45945 | 25670 ft | 495 kts | 331° |
| 2026-04-27 08:25 | 23.24693 | 38.44517 | 25897 ft | 496 kts | 330° |
| 2026-04-27 08:25 | 23.27891 | 38.43086 | 26117 ft | 497 kts | 330° |
| 2026-04-27 08:25 | 23.31092 | 38.41652 | 26338 ft | 498 kts | 330° |
| 2026-04-27 08:25 | 23.34304 | 38.40213 | 26527 ft | 500 kts | 330° |
| 2026-04-27 08:26 | 23.37538 | 38.38763 | 26705 ft | 501 kts | 330° |
| 2026-04-27 08:26 | 23.40754 | 38.37321 | 26900 ft | 502 kts | 330° |
| 2026-04-27 08:26 | 23.43995 | 38.35866 | 27078 ft | 502 kts | 330° |
| 2026-04-27 08:26 | 23.47232 | 38.34413 | 27237 ft | 503 kts | 330° |
| 2026-04-27 08:27 | 23.50478 | 38.32955 | 27381 ft | 504 kts | 330° |
| 2026-04-27 08:27 | 23.53684 | 38.31514 | 27567 ft | 504 kts | 330° |
| 2026-04-27 08:27 | 23.56922 | 38.30058 | 27806 ft | 503 kts | 330° |
| 2026-04-27 08:27 | 23.60149 | 38.28607 | 28091 ft | 501 kts | 330° |
| 2026-04-27 08:28 | 23.63369 | 38.27158 | 28374 ft | 499 kts | 329° |
| 2026-04-27 08:28 | 23.66575 | 38.25715 | 28609 ft | 498 kts | 329° |
| 2026-04-27 08:28 | 23.69782 | 38.24275 | 28838 ft | 497 kts | 329° |
| 2026-04-27 08:28 | 23.72977 | 38.22842 | 29104 ft | 496 kts | 329° |
| 2026-04-27 08:29 | 23.76168 | 38.21410 | 29363 ft | 495 kts | 329° |
| 2026-04-27 08:29 | 23.79348 | 38.19983 | 29626 ft | 493 kts | 329° |
| 2026-04-27 08:29 | 23.82517 | 38.18558 | 29874 ft | 492 kts | 329° |
| 2026-04-27 08:29 | 23.85640 | 38.17153 | 30076 ft | 491 kts | 329° |
| 2026-04-27 08:30 | 23.88798 | 38.15731 | 30262 ft | 490 kts | 329° |
| 2026-04-27 08:30 | 23.91953 | 38.14309 | 30443 ft | 489 kts | 329° |
| 2026-04-27 08:30 | 23.95104 | 38.12889 | 30630 ft | 488 kts | 329° |
| 2026-04-27 08:30 | 23.98249 | 38.11470 | 30824 ft | 487 kts | 329° |
| 2026-04-27 08:31 | 24.01392 | 38.10052 | 31009 ft | 486 kts | 329° |
| 2026-04-27 08:31 | 24.04512 | 38.08643 | 31191 ft | 486 kts | 328° |
| 2026-04-27 08:31 | 24.07644 | 38.07228 | 31362 ft | 485 kts | 328° |
| 2026-04-27 08:31 | 24.10718 | 38.05838 | 31540 ft | 484 kts | 328° |
| 2026-04-27 08:32 | 24.13794 | 38.04365 | 31711 ft | 479 kts | 325° |
| 2026-04-27 08:32 | 24.16707 | 38.02661 | 31870 ft | 472 kts | 320° |
| 2026-04-27 08:32 | 24.19426 | 38.00688 | 32023 ft | 466 kts | 317° |
| 2026-04-27 08:32 | 24.22080 | 37.98671 | 32381 ft | 460 kts | 317° |
| 2026-04-27 08:33 | 24.24685 | 37.96695 | 32938 ft | 451 kts | 317° |
| 2026-04-27 08:33 | 24.27260 | 37.94747 | 33321 ft | 447 kts | 317° |
| 2026-04-27 08:33 | 24.32405 | 37.90853 | 33420 ft | 452 kts | 317° |
| 2026-04-27 08:34 | 24.37602 | 37.86933 | 33579 ft | 454 kts | 317° |
| 2026-04-27 08:34 | 24.40206 | 37.84973 | 33693 ft | 455 kts | 317° |
| 2026-04-27 08:34 | 24.42816 | 37.83009 | 33770 ft | 455 kts | 317° |
| 2026-04-27 08:35 | 24.48016 | 37.79093 | 33925 ft | 456 kts | 317° |
| 2026-04-27 08:35 | 24.53259 | 37.75142 | 34020 ft | 457 kts | 317° |
| 2026-04-27 08:36 | 24.58506 | 37.71177 | 34126 ft | 458 kts | 317° |
| 2026-04-27 08:36 | 24.63756 | 37.67210 | 34256 ft | 458 kts | 317° |
| 2026-04-27 08:37 | 24.69015 | 37.63233 | 34363 ft | 459 kts | 316° |
| 2026-04-27 08:37 | 24.74279 | 37.59244 | 34457 ft | 459 kts | 316° |
| 2026-04-27 08:38 | 24.79551 | 37.55248 | 34550 ft | 460 kts | 316° |
| 2026-04-27 08:38 | 24.84790 | 37.51274 | 34689 ft | 459 kts | 316° |
| 2026-04-27 08:39 | 24.90051 | 37.47274 | 34754 ft | 460 kts | 316° |
| 2026-04-27 08:39 | 24.95328 | 37.43259 | 34818 ft | 461 kts | 316° |
| 2026-04-27 08:40 | 25.00572 | 37.39267 | 34868 ft | 461 kts | 316° |
| 2026-04-27 08:40 | 25.05854 | 37.35242 | 34953 ft | 461 kts | 316° |
| 2026-04-27 08:41 | 25.11135 | 37.31212 | 35021 ft | 461 kts | 316° |
| 2026-04-27 08:41 | 25.16446 | 37.27154 | 35080 ft | 462 kts | 316° |
| 2026-04-27 08:42 | 25.21703 | 37.23133 | 35111 ft | 462 kts | 316° |
| 2026-04-27 08:42 | 25.26988 | 37.19089 | 35143 ft | 462 kts | 316° |
| 2026-04-27 08:43 | 25.32279 | 37.15029 | 35187 ft | 463 kts | 316° |
| 2026-04-27 08:43 | 25.37569 | 37.10964 | 35213 ft | 463 kts | 316° |
| 2026-04-27 08:44 | 25.42871 | 37.06893 | 35248 ft | 463 kts | 316° |
| 2026-04-27 08:44 | 25.48179 | 37.02828 | 35276 ft | 464 kts | 316° |
| 2026-04-27 08:45 | 25.53444 | 36.98792 | 35312 ft | 464 kts | 316° |
| 2026-04-27 08:45 | 25.58746 | 36.94719 | 35345 ft | 464 kts | 316° |
| 2026-04-27 08:46 | 25.64048 | 36.90641 | 35378 ft | 464 kts | 316° |
| 2026-04-27 08:46 | 25.69365 | 36.86547 | 35406 ft | 464 kts | 316° |
| 2026-04-27 08:47 | 25.74676 | 36.82449 | 35430 ft | 464 kts | 315° |
| 2026-04-27 08:47 | 25.79945 | 36.78364 | 35456 ft | 465 kts | 315° |
| 2026-04-27 08:48 | 25.85241 | 36.74252 | 35499 ft | 465 kts | 315° |
| 2026-04-27 08:48 | 25.90542 | 36.70133 | 35530 ft | 465 kts | 315° |
| 2026-04-27 08:49 | 25.95841 | 36.66011 | 35570 ft | 465 kts | 315° |
| 2026-04-27 08:49 | 26.01145 | 36.61881 | 35603 ft | 465 kts | 315° |
| 2026-04-27 08:50 | 26.06445 | 36.57749 | 35638 ft | 465 kts | 315° |
| 2026-04-27 08:50 | 26.11740 | 36.53616 | 35681 ft | 465 kts | 315° |
| 2026-04-27 08:51 | 26.16991 | 36.49424 | 35710 ft | 461 kts | 312° |
| 2026-04-27 08:51 | 26.21592 | 36.44649 | 35743 ft | 450 kts | 305° |
| 2026-04-27 08:52 | 26.25911 | 36.39625 | 35876 ft | 448 kts | 305° |
| 2026-04-27 08:52 | 26.30227 | 36.34630 | 35936 ft | 445 kts | 305° |
| 2026-04-27 08:53 | 26.34522 | 36.29675 | 35942 ft | 443 kts | 305° |
| 2026-04-27 08:53 | 26.38767 | 36.24775 | 35941 ft | 441 kts | 305° |
| 2026-04-27 08:54 | 26.43022 | 36.19858 | 35935 ft | 440 kts | 305° |
| 2026-04-27 08:54 | 26.47263 | 36.14951 | 35936 ft | 438 kts | 305° |
| 2026-04-27 08:55 | 26.51501 | 36.10043 | 35935 ft | 437 kts | 305° |
| 2026-04-27 08:55 | 26.55719 | 36.05152 | 35932 ft | 436 kts | 305° |
| 2026-04-27 08:56 | 26.59924 | 36.00270 | 35937 ft | 435 kts | 305° |
| 2026-04-27 08:56 | 26.64089 | 35.95429 | 35935 ft | 434 kts | 305° |
| 2026-04-27 08:57 | 26.70367 | 35.88122 | 35937 ft | 433 kts | 305° |
| 2026-04-27 08:58 | 26.74550 | 35.83245 | 35936 ft | 433 kts | 305° |
| 2026-04-27 08:58 | 26.78687 | 35.78419 | 35939 ft | 432 kts | 305° |
| 2026-04-27 08:59 | 26.82845 | 35.73565 | 35933 ft | 431 kts | 305° |
| 2026-04-27 08:59 | 26.87001 | 35.68707 | 35930 ft | 431 kts | 305° |
| 2026-04-27 09:00 | 26.91147 | 35.63854 | 35938 ft | 431 kts | 304° |
| 2026-04-27 09:00 | 26.95259 | 35.59035 | 35935 ft | 430 kts | 305° |
| 2026-04-27 09:01 | 26.99392 | 35.54186 | 35923 ft | 430 kts | 304° |
| 2026-04-27 09:01 | 27.03527 | 35.49328 | 35928 ft | 430 kts | 304° |
| 2026-04-27 09:02 | 27.07651 | 35.44479 | 35934 ft | 429 kts | 304° |
| 2026-04-27 09:02 | 27.11769 | 35.39631 | 35934 ft | 429 kts | 304° |
| 2026-04-27 09:03 | 27.15893 | 35.34769 | 35935 ft | 429 kts | 304° |
| 2026-04-27 09:03 | 27.19985 | 35.29941 | 35932 ft | 429 kts | 304° |
| 2026-04-27 09:04 | 27.24107 | 35.25071 | 35927 ft | 429 kts | 304° |
| 2026-04-27 09:04 | 27.28199 | 35.20232 | 35924 ft | 429 kts | 304° |
| 2026-04-27 09:05 | 27.32312 | 35.15361 | 35920 ft | 429 kts | 304° |
| 2026-04-27 09:05 | 27.36421 | 35.10490 | 35922 ft | 429 kts | 304° |
| 2026-04-27 09:06 | 27.40535 | 35.05607 | 35922 ft | 429 kts | 304° |
| 2026-04-27 09:06 | 27.44619 | 35.00754 | 35918 ft | 429 kts | 304° |
| 2026-04-27 09:07 | 27.48727 | 34.95866 | 35918 ft | 429 kts | 304° |
| 2026-04-27 09:07 | 27.52916 | 34.91045 | 35915 ft | 433 kts | 307° |
| 2026-04-27 09:08 | 27.57318 | 34.86400 | 35912 ft | 434 kts | 308° |
| 2026-04-27 09:08 | 27.61735 | 34.81767 | 35899 ft | 434 kts | 308° |
| 2026-04-27 09:09 | 27.65404 | 34.77897 | 35897 ft | 434 kts | 308° |
| 2026-04-27 09:09 | 27.69801 | 34.73240 | 35910 ft | 434 kts | 308° |
| 2026-04-27 09:10 | 27.74207 | 34.68565 | 35907 ft | 434 kts | 308° |
| 2026-04-27 09:10 | 27.78605 | 34.63893 | 35913 ft | 434 kts | 308° |
| 2026-04-27 09:11 | 27.82982 | 34.59238 | 35915 ft | 435 kts | 308° |
| 2026-04-27 09:11 | 27.87399 | 34.54535 | 35918 ft | 435 kts | 308° |
| 2026-04-27 09:12 | 27.91811 | 34.49832 | 35925 ft | 435 kts | 308° |
| 2026-04-27 09:12 | 27.96226 | 34.45120 | 35925 ft | 436 kts | 308° |
| 2026-04-27 09:13 | 28.00513 | 34.40358 | 35930 ft | 430 kts | 303° |
| 2026-04-27 09:13 | 28.04291 | 34.35153 | 35921 ft | 427 kts | 301° |
| 2026-04-27 09:14 | 28.08039 | 34.29934 | 35905 ft | 427 kts | 302° |
| 2026-04-27 09:14 | 28.11797 | 34.24717 | 35928 ft | 427 kts | 302° |
| 2026-04-27 09:15 | 28.15536 | 34.19529 | 35936 ft | 427 kts | 302° |
| 2026-04-27 09:15 | 28.19300 | 34.14303 | 35942 ft | 428 kts | 302° |
| 2026-04-27 09:16 | 28.23070 | 34.09068 | 35943 ft | 429 kts | 302° |
| 2026-04-27 09:16 | 28.26842 | 34.03815 | 35943 ft | 430 kts | 302° |
| 2026-04-27 09:17 | 28.30620 | 33.98554 | 35965 ft | 430 kts | 302° |
| 2026-04-27 09:17 | 28.34402 | 33.93275 | 35976 ft | 430 kts | 302° |
| 2026-04-27 09:18 | 28.38184 | 33.87993 | 35934 ft | 432 kts | 302° |
| 2026-04-27 09:18 | 28.41946 | 33.82734 | 35946 ft | 431 kts | 302° |
| 2026-04-27 09:19 | 28.45725 | 33.77440 | 35994 ft | 431 kts | 302° |
| 2026-04-27 09:19 | 28.49513 | 33.72129 | 35973 ft | 432 kts | 302° |
| 2026-04-27 09:20 | 28.53300 | 33.66808 | 35968 ft | 434 kts | 302° |
| 2026-04-27 09:20 | 28.57113 | 33.61446 | 35960 ft | 437 kts | 302° |
| 2026-04-27 09:21 | 28.60920 | 33.56094 | 35983 ft | 438 kts | 302° |
| 2026-04-27 09:21 | 28.64755 | 33.50691 | 35984 ft | 438 kts | 302° |
| 2026-04-27 09:22 | 28.68587 | 33.45291 | 35976 ft | 438 kts | 302° |
| 2026-04-27 09:22 | 28.72417 | 33.39889 | 36001 ft | 437 kts | 302° |
| 2026-04-27 09:23 | 28.76216 | 33.34522 | 35992 ft | 437 kts | 302° |
| 2026-04-27 09:23 | 28.80035 | 33.29116 | 35991 ft | 437 kts | 302° |
| 2026-04-27 09:24 | 28.83857 | 33.23701 | 35987 ft | 438 kts | 303° |
| 2026-04-27 09:24 | 28.87656 | 33.18311 | 35991 ft | 438 kts | 303° |
| 2026-04-27 09:25 | 28.91484 | 33.12872 | 35995 ft | 438 kts | 303° |
| 2026-04-27 09:25 | 28.95305 | 33.07438 | 35991 ft | 439 kts | 303° |
| 2026-04-27 09:26 | 28.99122 | 33.02001 | 35993 ft | 439 kts | 303° |
| 2026-04-27 09:26 | 29.02922 | 32.96582 | 35989 ft | 439 kts | 303° |
| 2026-04-27 09:27 | 29.06742 | 32.91126 | 35989 ft | 440 kts | 303° |
| 2026-04-27 09:27 | 29.10573 | 32.85648 | 35999 ft | 440 kts | 303° |
| 2026-04-27 09:28 | 29.14394 | 32.80177 | 35994 ft | 441 kts | 303° |
| 2026-04-27 09:28 | 29.18218 | 32.74693 | 36008 ft | 441 kts | 303° |
| 2026-04-27 09:29 | 29.22027 | 32.69225 | 35994 ft | 442 kts | 303° |
| 2026-04-27 09:29 | 29.25861 | 32.63712 | 35994 ft | 443 kts | 303° |
| 2026-04-27 09:30 | 29.29696 | 32.58185 | 35998 ft | 443 kts | 303° |
| 2026-04-27 09:30 | 29.33516 | 32.52624 | 36003 ft | 444 kts | 303° |
| 2026-04-27 09:31 | 29.37331 | 32.47050 | 36020 ft | 444 kts | 303° |
| 2026-04-27 09:31 | 29.41153 | 32.41464 | 36008 ft | 445 kts | 303° |
| 2026-04-27 09:32 | 29.44954 | 32.35904 | 36007 ft | 446 kts | 303° |
| 2026-04-27 09:32 | 29.48778 | 32.30304 | 36008 ft | 446 kts | 303° |
| 2026-04-27 09:33 | 29.52617 | 32.24673 | 36009 ft | 447 kts | 303° |
| 2026-04-27 09:33 | 29.56447 | 32.19049 | 36017 ft | 447 kts | 304° |
| 2026-04-27 09:34 | 29.60262 | 32.13438 | 36014 ft | 448 kts | 304° |
| 2026-04-27 09:34 | 29.64095 | 32.07792 | 36017 ft | 448 kts | 304° |
| 2026-04-27 09:35 | 29.67932 | 32.02134 | 36022 ft | 449 kts | 304° |
| 2026-04-27 09:35 | 29.71778 | 31.96453 | 36024 ft | 449 kts | 304° |
| 2026-04-27 09:36 | 29.75607 | 31.90790 | 36023 ft | 450 kts | 304° |
| 2026-04-27 09:36 | 29.79445 | 31.85086 | 36031 ft | 450 kts | 303° |
| 2026-04-27 09:37 | 29.83193 | 31.79298 | 36026 ft | 450 kts | 303° |
| 2026-04-27 09:37 | 29.86923 | 31.73483 | 36028 ft | 451 kts | 303° |
| 2026-04-27 09:38 | 29.90640 | 31.67703 | 36027 ft | 451 kts | 303° |
| 2026-04-27 09:38 | 29.94393 | 31.61876 | 36030 ft | 452 kts | 303° |
| 2026-04-27 09:39 | 29.98140 | 31.56051 | 36023 ft | 452 kts | 303° |
| 2026-04-27 09:39 | 30.01869 | 31.50243 | 36028 ft | 453 kts | 303° |
| 2026-04-27 09:40 | 30.05619 | 31.44395 | 36032 ft | 453 kts | 303° |
| 2026-04-27 09:40 | 30.09500 | 31.38637 | 36026 ft | 456 kts | 308° |
| 2026-04-27 09:41 | 30.14072 | 31.33496 | 36038 ft | 459 kts | 313° |
| 2026-04-27 09:41 | 30.18758 | 31.28529 | 36029 ft | 460 kts | 313° |
| 2026-04-27 09:42 | 30.23468 | 31.23502 | 36015 ft | 460 kts | 313° |
| 2026-04-27 09:42 | 30.28163 | 31.18459 | 36010 ft | 460 kts | 313° |
| 2026-04-27 09:43 | 30.32852 | 31.13409 | 35993 ft | 460 kts | 313° |
| 2026-04-27 09:43 | 30.37536 | 31.08357 | 35991 ft | 460 kts | 313° |
| 2026-04-27 09:44 | 30.42195 | 31.03326 | 35986 ft | 460 kts | 313° |
| 2026-04-27 09:44 | 30.46878 | 30.98263 | 35984 ft | 461 kts | 313° |
| 2026-04-27 09:45 | 30.51573 | 30.93180 | 35978 ft | 461 kts | 313° |
| 2026-04-27 09:45 | 30.56259 | 30.88100 | 35982 ft | 461 kts | 313° |
| 2026-04-27 09:46 | 30.60918 | 30.83042 | 35996 ft | 461 kts | 313° |
| 2026-04-27 09:46 | 30.65614 | 30.77936 | 35988 ft | 461 kts | 313° |
| 2026-04-27 09:47 | 30.70296 | 30.72838 | 35992 ft | 462 kts | 313° |
| 2026-04-27 09:47 | 30.74985 | 30.67726 | 35993 ft | 462 kts | 313° |
| 2026-04-27 09:48 | 30.79676 | 30.62605 | 35995 ft | 462 kts | 313° |
| 2026-04-27 09:48 | 30.84339 | 30.57507 | 35996 ft | 462 kts | 313° |
| 2026-04-27 09:49 | 30.89028 | 30.52373 | 35997 ft | 462 kts | 313° |
| 2026-04-27 09:49 | 30.93713 | 30.47236 | 36005 ft | 463 kts | 313° |
| 2026-04-27 09:50 | 30.98403 | 30.42085 | 36009 ft | 463 kts | 313° |
| 2026-04-27 09:50 | 31.03088 | 30.36934 | 36013 ft | 463 kts | 313° |
| 2026-04-27 09:51 | 31.07437 | 30.31500 | 36014 ft | 458 kts | 302° |
| 2026-04-27 09:51 | 31.10592 | 30.25063 | 36033 ft | 455 kts | 292° |
| 2026-04-27 09:52 | 31.12608 | 30.18070 | 36046 ft | 454 kts | 286° |
| 2026-04-27 09:52 | 31.14456 | 30.11053 | 36051 ft | 455 kts | 287° |
| 2026-04-27 09:53 | 31.16374 | 30.03997 | 36055 ft | 455 kts | 287° |
| 2026-04-27 09:53 | 31.18559 | 29.97058 | 36058 ft | 456 kts | 294° |
| 2026-04-27 09:54 | 31.21617 | 29.90543 | 36059 ft | 458 kts | 302° |
| 2026-04-27 09:54 | 31.25336 | 29.84497 | 36056 ft | 459 kts | 304° |
| 2026-04-27 09:55 | 31.29125 | 29.78519 | 36048 ft | 459 kts | 304° |
| 2026-04-27 09:55 | 31.34800 | 29.69461 | 36044 ft | 460 kts | 304° |
| 2026-04-27 09:56 | 31.38566 | 29.63402 | 36039 ft | 460 kts | 304° |
| 2026-04-27 09:56 | 31.41689 | 29.58367 | 36025 ft | 460 kts | 304° |
| 2026-04-27 09:57 | 31.46072 | 29.51293 | 36046 ft | 460 kts | 304° |
| 2026-04-27 09:57 | 31.49204 | 29.46230 | 36051 ft | 460 kts | 304° |
| 2026-04-27 09:58 | 31.52953 | 29.40161 | 36036 ft | 461 kts | 304° |
| 2026-04-27 09:58 | 31.56725 | 29.34046 | 36034 ft | 461 kts | 304° |
| 2026-04-27 09:59 | 31.60452 | 29.27984 | 36039 ft | 461 kts | 304° |
| 2026-04-27 09:59 | 31.64192 | 29.21847 | 36053 ft | 461 kts | 304° |
| 2026-04-27 10:00 | 31.67917 | 29.15727 | 36043 ft | 461 kts | 304° |
| 2026-04-27 10:00 | 31.71713 | 29.09634 | 36041 ft | 462 kts | 308° |
| 2026-04-27 10:01 | 31.76158 | 29.04182 | 36045 ft | 465 kts | 316° |
| 2026-04-27 10:01 | 31.81178 | 28.99335 | 36043 ft | 466 kts | 318° |
| 2026-04-27 10:02 | 31.86184 | 28.94576 | 36040 ft | 465 kts | 318° |
| 2026-04-27 10:02 | 31.91215 | 28.89753 | 36044 ft | 465 kts | 318° |
| 2026-04-27 10:03 | 31.96207 | 28.84937 | 36048 ft | 465 kts | 318° |
| 2026-04-27 10:03 | 32.01215 | 28.80089 | 36045 ft | 466 kts | 318° |
| 2026-04-27 10:04 | 32.06234 | 28.75224 | 36043 ft | 466 kts | 317° |
| 2026-04-27 10:04 | 32.11212 | 28.70392 | 36049 ft | 466 kts | 317° |
| 2026-04-27 10:05 | 32.16242 | 28.65502 | 36044 ft | 466 kts | 317° |
| 2026-04-27 10:05 | 32.21228 | 28.60650 | 36044 ft | 466 kts | 317° |
| 2026-04-27 10:06 | 32.26233 | 28.55771 | 36052 ft | 466 kts | 317° |
| 2026-04-27 10:06 | 32.31233 | 28.50889 | 36046 ft | 466 kts | 317° |
| 2026-04-27 10:07 | 32.36246 | 28.45989 | 36053 ft | 466 kts | 317° |
| 2026-04-27 10:07 | 32.41240 | 28.41099 | 36052 ft | 466 kts | 317° |
| 2026-04-27 10:08 | 32.46227 | 28.36209 | 36055 ft | 467 kts | 317° |
| 2026-04-27 10:08 | 32.51212 | 28.31313 | 36060 ft | 467 kts | 317° |
| 2026-04-27 10:09 | 32.56212 | 28.26396 | 36054 ft | 467 kts | 317° |
| 2026-04-27 10:09 | 32.61220 | 28.21463 | 36055 ft | 467 kts | 317° |
| 2026-04-27 10:10 | 32.66195 | 28.16555 | 36058 ft | 468 kts | 317° |
| 2026-04-27 10:10 | 32.71195 | 28.11616 | 36059 ft | 468 kts | 317° |
| 2026-04-27 10:11 | 32.76213 | 28.06651 | 36063 ft | 468 kts | 317° |
| 2026-04-27 10:11 | 32.81197 | 28.01712 | 36050 ft | 468 kts | 317° |
| 2026-04-27 10:12 | 32.86213 | 27.96733 | 36057 ft | 468 kts | 317° |
| 2026-04-27 10:12 | 32.91215 | 27.91762 | 36065 ft | 469 kts | 317° |
| 2026-04-27 10:13 | 32.96209 | 27.86791 | 36063 ft | 469 kts | 317° |
| 2026-04-27 10:13 | 33.01204 | 27.81811 | 36061 ft | 469 kts | 317° |
| 2026-04-27 10:14 | 33.06209 | 27.76813 | 36061 ft | 469 kts | 317° |
| 2026-04-27 10:14 | 33.11241 | 27.71780 | 36063 ft | 470 kts | 317° |
| 2026-04-27 10:15 | 33.16220 | 27.66794 | 36065 ft | 470 kts | 317° |
| 2026-04-27 10:15 | 33.21237 | 27.61761 | 36065 ft | 470 kts | 317° |
| 2026-04-27 10:16 | 33.26236 | 27.56738 | 36067 ft | 471 kts | 317° |
| 2026-04-27 10:16 | 33.31271 | 27.51672 | 36067 ft | 471 kts | 317° |
| 2026-04-27 10:17 | 33.36251 | 27.46653 | 36065 ft | 471 kts | 317° |
| 2026-04-27 10:17 | 33.41253 | 27.41604 | 36064 ft | 472 kts | 317° |
| 2026-04-27 10:18 | 33.46273 | 27.36529 | 36061 ft | 472 kts | 317° |
| 2026-04-27 10:18 | 33.51306 | 27.31433 | 36066 ft | 472 kts | 317° |
| 2026-04-27 10:19 | 33.56329 | 27.26338 | 36067 ft | 473 kts | 317° |
| 2026-04-27 10:19 | 33.61321 | 27.21267 | 36067 ft | 473 kts | 317° |
| 2026-04-27 10:20 | 33.66366 | 27.16135 | 36068 ft | 473 kts | 317° |
| 2026-04-27 10:20 | 33.71364 | 27.11042 | 36069 ft | 473 kts | 317° |
| 2026-04-27 10:21 | 33.76378 | 27.05924 | 36069 ft | 473 kts | 317° |
| 2026-04-27 10:21 | 33.81385 | 27.00806 | 36070 ft | 473 kts | 317° |
| 2026-04-27 10:22 | 33.86406 | 26.95665 | 36070 ft | 473 kts | 317° |
| 2026-04-27 10:22 | 33.91377 | 26.90566 | 36071 ft | 473 kts | 317° |
| 2026-04-27 10:23 | 33.96383 | 26.85423 | 36070 ft | 472 kts | 317° |
| 2026-04-27 10:23 | 34.01403 | 26.80285 | 36071 ft | 472 kts | 319° |
| 2026-04-27 10:24 | 34.06588 | 26.75431 | 36070 ft | 473 kts | 321° |
| 2026-04-27 10:24 | 34.11839 | 26.70666 | 36075 ft | 473 kts | 321° |
| 2026-04-27 10:25 | 34.17102 | 26.65830 | 36069 ft | 473 kts | 321° |
| 2026-04-27 10:25 | 34.22296 | 26.61004 | 36071 ft | 473 kts | 320° |
| 2026-04-27 10:26 | 34.27489 | 26.56155 | 36071 ft | 473 kts | 320° |
| 2026-04-27 10:26 | 34.32724 | 26.51260 | 36072 ft | 474 kts | 320° |
| 2026-04-27 10:27 | 34.37936 | 26.46381 | 36071 ft | 474 kts | 320° |
| 2026-04-27 10:27 | 34.43158 | 26.41486 | 36071 ft | 475 kts | 321° |
| 2026-04-27 10:28 | 34.48380 | 26.36583 | 36075 ft | 475 kts | 321° |
| 2026-04-27 10:28 | 34.53609 | 26.31664 | 36078 ft | 476 kts | 320° |
| 2026-04-27 10:29 | 34.58790 | 26.26717 | 36074 ft | 476 kts | 320° |
| 2026-04-27 10:29 | 34.63982 | 26.21711 | 36075 ft | 476 kts | 320° |
| 2026-04-27 10:30 | 34.69179 | 26.16695 | 36077 ft | 476 kts | 320° |
| 2026-04-27 10:30 | 34.74370 | 26.11685 | 36077 ft | 476 kts | 320° |
| 2026-04-27 10:31 | 34.79525 | 26.06705 | 36078 ft | 476 kts | 320° |
| 2026-04-27 10:31 | 34.84713 | 26.01685 | 36085 ft | 476 kts | 320° |
| 2026-04-27 10:32 | 34.89902 | 25.96656 | 36084 ft | 476 kts | 320° |
| 2026-04-27 10:32 | 34.95085 | 25.91624 | 36091 ft | 476 kts | 320° |
| 2026-04-27 10:33 | 35.00231 | 25.86621 | 36079 ft | 476 kts | 321° |
| 2026-04-27 10:33 | 35.05435 | 25.81551 | 36104 ft | 476 kts | 321° |
| 2026-04-27 10:34 | 35.10576 | 25.76534 | 36113 ft | 476 kts | 321° |
| 2026-04-27 10:34 | 35.15753 | 25.71476 | 36115 ft | 476 kts | 321° |
| 2026-04-27 10:35 | 35.20924 | 25.66413 | 36122 ft | 476 kts | 321° |
| 2026-04-27 10:35 | 35.26091 | 25.61346 | 36111 ft | 475 kts | 321° |
| 2026-04-27 10:36 | 35.31252 | 25.56276 | 36113 ft | 475 kts | 321° |
| 2026-04-27 10:36 | 35.36407 | 25.51205 | 36107 ft | 475 kts | 321° |
| 2026-04-27 10:37 | 35.41523 | 25.46162 | 36119 ft | 474 kts | 321° |
| 2026-04-27 10:37 | 35.46692 | 25.41058 | 36110 ft | 474 kts | 321° |
| 2026-04-27 10:38 | 35.51794 | 25.36014 | 36111 ft | 473 kts | 321° |
| 2026-04-27 10:38 | 35.56919 | 25.30936 | 36112 ft | 473 kts | 321° |
| 2026-04-27 10:39 | 35.62048 | 25.25847 | 36110 ft | 473 kts | 321° |
| 2026-04-27 10:39 | 35.67163 | 25.20763 | 36114 ft | 473 kts | 321° |
| 2026-04-27 10:40 | 35.72287 | 25.15661 | 36121 ft | 473 kts | 321° |
| 2026-04-27 10:40 | 35.77373 | 25.10588 | 36116 ft | 473 kts | 321° |
| 2026-04-27 10:41 | 35.82493 | 25.05473 | 36103 ft | 474 kts | 322° |
| 2026-04-27 10:41 | 35.87618 | 25.00344 | 36106 ft | 474 kts | 322° |
| 2026-04-27 10:42 | 35.92737 | 24.95213 | 36103 ft | 475 kts | 322° |
| 2026-04-27 10:42 | 35.97869 | 24.90058 | 36107 ft | 475 kts | 322° |
| 2026-04-27 10:43 | 36.02959 | 24.84938 | 36101 ft | 475 kts | 322° |
| 2026-04-27 10:43 | 36.08088 | 24.79770 | 36101 ft | 476 kts | 322° |
| 2026-04-27 10:44 | 36.13218 | 24.74592 | 36106 ft | 476 kts | 322° |
| 2026-04-27 10:44 | 36.17497 | 24.70265 | 36108 ft | 476 kts | 322° |
| 2026-04-27 10:45 | 36.22629 | 24.65068 | 36119 ft | 476 kts | 322° |
| 2026-04-27 10:45 | 36.27757 | 24.59866 | 36109 ft | 477 kts | 322° |
| 2026-04-27 10:46 | 36.32888 | 24.54651 | 36099 ft | 477 kts | 322° |
| 2026-04-27 10:46 | 36.38020 | 24.49426 | 36118 ft | 477 kts | 322° |
| 2026-04-27 10:47 | 36.43153 | 24.44192 | 36122 ft | 477 kts | 322° |
| 2026-04-27 10:47 | 36.48249 | 24.38986 | 36117 ft | 477 kts | 322° |
| 2026-04-27 10:48 | 36.53375 | 24.33740 | 36102 ft | 477 kts | 322° |
| 2026-04-27 10:48 | 36.58495 | 24.28490 | 36115 ft | 477 kts | 322° |
| 2026-04-27 10:49 | 36.63622 | 24.23225 | 36119 ft | 476 kts | 322° |
| 2026-04-27 10:49 | 36.68698 | 24.18002 | 36117 ft | 476 kts | 322° |
| 2026-04-27 10:50 | 36.73811 | 24.12732 | 36119 ft | 476 kts | 322° |
| 2026-04-27 10:50 | 36.78917 | 24.07460 | 36121 ft | 476 kts | 322° |
| 2026-04-27 10:51 | 36.84024 | 24.02176 | 36119 ft | 476 kts | 322° |
| 2026-04-27 10:51 | 36.89125 | 23.96890 | 36121 ft | 476 kts | 322° |
| 2026-04-27 10:52 | 36.94196 | 23.91626 | 36123 ft | 476 kts | 322° |
| 2026-04-27 10:52 | 36.99289 | 23.86330 | 36122 ft | 476 kts | 322° |
| 2026-04-27 10:53 | 37.06932 | 23.78363 | 36122 ft | 476 kts | 322° |
| 2026-04-27 10:54 | 37.12029 | 23.73038 | 36121 ft | 476 kts | 322° |
| 2026-04-27 10:54 | 37.17116 | 23.67714 | 36126 ft | 477 kts | 322° |
| 2026-04-27 10:55 | 37.22210 | 23.62374 | 36130 ft | 477 kts | 322° |
| 2026-04-27 10:55 | 37.27299 | 23.57028 | 36131 ft | 477 kts | 321° |
| 2026-04-27 10:56 | 37.32390 | 23.51671 | 36132 ft | 477 kts | 321° |
| 2026-04-27 10:56 | 37.37442 | 23.46345 | 36131 ft | 478 kts | 321° |
| 2026-04-27 10:57 | 37.42537 | 23.40964 | 36134 ft | 478 kts | 321° |
| 2026-04-27 10:57 | 37.47626 | 23.35579 | 36138 ft | 478 kts | 321° |
| 2026-04-27 10:58 | 37.52721 | 23.30178 | 36139 ft | 479 kts | 321° |
| 2026-04-27 10:58 | 37.57820 | 23.24762 | 36140 ft | 479 kts | 321° |
| 2026-04-27 10:59 | 37.62916 | 23.19339 | 36129 ft | 479 kts | 321° |
| 2026-04-27 10:59 | 37.67999 | 23.13921 | 36147 ft | 479 kts | 321° |
| 2026-04-27 11:00 | 37.75607 | 23.05792 | 36143 ft | 478 kts | 321° |
| 2026-04-27 11:00 | 37.80689 | 23.00349 | 36137 ft | 479 kts | 321° |
| 2026-04-27 11:01 | 37.85776 | 22.94892 | 36133 ft | 478 kts | 321° |
| 2026-04-27 11:01 | 37.90850 | 22.89437 | 36141 ft | 478 kts | 321° |
| 2026-04-27 11:02 | 37.95919 | 22.83979 | 36136 ft | 478 kts | 321° |
| 2026-04-27 11:02 | 38.00946 | 22.78553 | 36148 ft | 477 kts | 321° |
| 2026-04-27 11:03 | 38.05992 | 22.73097 | 36148 ft | 476 kts | 320° |
| 2026-04-27 11:03 | 38.11036 | 22.67635 | 36150 ft | 476 kts | 320° |
| 2026-04-27 11:04 | 38.16069 | 22.62174 | 36152 ft | 476 kts | 320° |
| 2026-04-27 11:04 | 38.21103 | 22.56701 | 36154 ft | 475 kts | 320° |
| 2026-04-27 11:05 | 38.26131 | 22.51225 | 36159 ft | 475 kts | 320° |
| 2026-04-27 11:05 | 38.31132 | 22.45767 | 36158 ft | 476 kts | 320° |
| 2026-04-27 11:06 | 38.36155 | 22.40276 | 36160 ft | 476 kts | 320° |
| 2026-04-27 11:06 | 38.41179 | 22.34772 | 36161 ft | 477 kts | 320° |
| 2026-04-27 11:07 | 38.46202 | 22.29259 | 36166 ft | 477 kts | 320° |
| 2026-04-27 11:07 | 38.51251 | 22.23707 | 36158 ft | 478 kts | 319° |
| 2026-04-27 11:08 | 38.56259 | 22.18189 | 36163 ft | 478 kts | 319° |
| 2026-04-27 11:08 | 38.61288 | 22.12638 | 36164 ft | 477 kts | 319° |
| 2026-04-27 11:09 | 38.66311 | 22.07084 | 36165 ft | 477 kts | 319° |
| 2026-04-27 11:09 | 38.71337 | 22.01516 | 36166 ft | 477 kts | 319° |
| 2026-04-27 11:10 | 38.76315 | 21.95988 | 36164 ft | 477 kts | 319° |
| 2026-04-27 11:10 | 38.81334 | 21.90405 | 36156 ft | 477 kts | 319° |
| 2026-04-27 11:11 | 38.86339 | 21.84826 | 36158 ft | 477 kts | 319° |
| 2026-04-27 11:11 | 38.91364 | 21.79216 | 36158 ft | 477 kts | 319° |
| 2026-04-27 11:12 | 38.96361 | 21.73625 | 36160 ft | 476 kts | 318° |
| 2026-04-27 11:12 | 39.01328 | 21.68057 | 36140 ft | 476 kts | 318° |
| 2026-04-27 11:13 | 39.06316 | 21.62454 | 36162 ft | 475 kts | 318° |
| 2026-04-27 11:13 | 39.11293 | 21.56853 | 36153 ft | 475 kts | 318° |
| 2026-04-27 11:14 | 39.16236 | 21.51280 | 36159 ft | 474 kts | 318° |
| 2026-04-27 11:14 | 39.21204 | 21.45666 | 36157 ft | 475 kts | 318° |
| 2026-04-27 11:15 | 39.26171 | 21.40042 | 36150 ft | 475 kts | 317° |
| 2026-04-27 11:15 | 39.31138 | 21.34409 | 36149 ft | 475 kts | 317° |
| 2026-04-27 11:16 | 39.36107 | 21.28763 | 36139 ft | 475 kts | 317° |
| 2026-04-27 11:16 | 39.41064 | 21.23118 | 36143 ft | 475 kts | 317° |
| 2026-04-27 11:17 | 39.46022 | 21.17461 | 36124 ft | 474 kts | 317° |
| 2026-04-27 11:17 | 39.50931 | 21.11850 | 36129 ft | 474 kts | 317° |
| 2026-04-27 11:18 | 39.55878 | 21.06183 | 36126 ft | 474 kts | 317° |
| 2026-04-27 11:18 | 39.60810 | 21.00523 | 36133 ft | 473 kts | 317° |
| 2026-04-27 11:19 | 39.65734 | 20.94858 | 36142 ft | 473 kts | 317° |
| 2026-04-27 11:19 | 39.70622 | 20.89226 | 36134 ft | 473 kts | 317° |
| 2026-04-27 11:20 | 39.75551 | 20.83535 | 36133 ft | 473 kts | 317° |
| 2026-04-27 11:20 | 39.80484 | 20.77828 | 36127 ft | 473 kts | 316° |
| 2026-04-27 11:21 | 39.85374 | 20.72159 | 36135 ft | 473 kts | 316° |
| 2026-04-27 11:21 | 39.90293 | 20.66446 | 36131 ft | 473 kts | 316° |
| 2026-04-27 11:22 | 39.95205 | 20.60728 | 36118 ft | 474 kts | 316° |
| 2026-04-27 11:22 | 40.00114 | 20.55002 | 36121 ft | 473 kts | 316° |
| 2026-04-27 11:23 | 40.05019 | 20.49271 | 36111 ft | 473 kts | 316° |
| 2026-04-27 11:23 | 40.10132 | 20.43895 | 36128 ft | 473 kts | 322° |
| 2026-04-27 11:24 | 40.15471 | 20.38818 | 36105 ft | 474 kts | 322° |
| 2026-04-27 11:24 | 40.20803 | 20.33728 | 36107 ft | 473 kts | 321° |
| 2026-04-27 11:25 | 40.26064 | 20.28657 | 36117 ft | 472 kts | 321° |
| 2026-04-27 11:25 | 40.31346 | 20.23543 | 36115 ft | 472 kts | 321° |
| 2026-04-27 11:26 | 40.36631 | 20.18416 | 36109 ft | 472 kts | 321° |
| 2026-04-27 11:26 | 40.41911 | 20.13284 | 36118 ft | 472 kts | 321° |
| 2026-04-27 11:27 | 40.47191 | 20.08143 | 36107 ft | 472 kts | 321° |
| 2026-04-27 11:27 | 40.52429 | 20.03034 | 36114 ft | 471 kts | 321° |
| 2026-04-27 11:28 | 40.57698 | 19.97880 | 36102 ft | 471 kts | 321° |
| 2026-04-27 11:28 | 40.62954 | 19.92722 | 36101 ft | 471 kts | 321° |
| 2026-04-27 11:29 | 40.68195 | 19.87568 | 36080 ft | 470 kts | 321° |
| 2026-04-27 11:29 | 40.73429 | 19.82409 | 36083 ft | 470 kts | 321° |
| 2026-04-27 11:30 | 40.78682 | 19.77222 | 36087 ft | 470 kts | 321° |
| 2026-04-27 11:30 | 40.83890 | 19.72069 | 36109 ft | 470 kts | 321° |
| 2026-04-27 11:31 | 40.88277 | 19.67721 | 36113 ft | 470 kts | 321° |
| 2026-04-27 11:31 | 40.94366 | 19.61672 | 36115 ft | 470 kts | 321° |
| 2026-04-27 11:32 | 40.98712 | 19.57347 | 36098 ft | 470 kts | 321° |
| 2026-04-27 11:32 | 41.03940 | 19.52133 | 36104 ft | 470 kts | 321° |
| 2026-04-27 11:33 | 41.10016 | 19.46062 | 36114 ft | 470 kts | 321° |
| 2026-04-27 11:33 | 41.14352 | 19.41720 | 36113 ft | 470 kts | 321° |
| 2026-04-27 11:34 | 41.19569 | 19.36486 | 36116 ft | 469 kts | 321° |
| 2026-04-27 11:34 | 41.24774 | 19.31253 | 36118 ft | 468 kts | 321° |
| 2026-04-27 11:35 | 41.29971 | 19.26017 | 36117 ft | 468 kts | 321° |
| 2026-04-27 11:35 | 41.35140 | 19.20798 | 36119 ft | 468 kts | 321° |
| 2026-04-27 11:36 | 41.40328 | 19.15549 | 36185 ft | 467 kts | 321° |
| 2026-04-27 11:36 | 41.45483 | 19.10325 | 36110 ft | 468 kts | 321° |
| 2026-04-27 11:37 | 41.50651 | 19.05064 | 36124 ft | 466 kts | 321° |
| 2026-04-27 11:37 | 41.55797 | 18.99801 | 36119 ft | 465 kts | 320° |
| 2026-04-27 11:38 | 41.60925 | 18.94547 | 36122 ft | 463 kts | 320° |
| 2026-04-27 11:38 | 41.66008 | 18.89329 | 36125 ft | 463 kts | 320° |
| 2026-04-27 11:39 | 41.71105 | 18.84086 | 36127 ft | 462 kts | 320° |
| 2026-04-27 11:39 | 41.76203 | 18.78833 | 36125 ft | 461 kts | 320° |
| 2026-04-27 11:40 | 41.81292 | 18.73577 | 36128 ft | 461 kts | 320° |
| 2026-04-27 11:40 | 41.86376 | 18.68315 | 36128 ft | 461 kts | 320° |
| 2026-04-27 11:41 | 41.91426 | 18.63078 | 36134 ft | 461 kts | 320° |
| 2026-04-27 11:41 | 41.96512 | 18.57793 | 36134 ft | 462 kts | 320° |
| 2026-04-27 11:42 | 42.01534 | 18.52411 | 36130 ft | 461 kts | 316° |
| 2026-04-27 11:42 | 42.05983 | 18.46229 | 36134 ft | 459 kts | 311° |
| 2026-04-27 11:43 | 42.10309 | 18.39887 | 36131 ft | 460 kts | 310° |
| 2026-04-27 11:43 | 42.14643 | 18.33550 | 36126 ft | 460 kts | 311° |
| 2026-04-27 11:44 | 42.18964 | 18.27257 | 36128 ft | 460 kts | 311° |
| 2026-04-27 11:44 | 42.23343 | 18.20881 | 36130 ft | 460 kts | 311° |
| 2026-04-27 11:45 | 42.26965 | 18.15597 | 36133 ft | 460 kts | 311° |
| 2026-04-27 11:45 | 42.32014 | 18.08213 | 36132 ft | 460 kts | 310° |
| 2026-04-27 11:46 | 42.36349 | 18.01858 | 36133 ft | 460 kts | 310° |
| 2026-04-27 11:46 | 42.40693 | 17.95474 | 36133 ft | 460 kts | 310° |
| 2026-04-27 11:47 | 42.44997 | 17.89136 | 36134 ft | 459 kts | 310° |
| 2026-04-27 11:47 | 42.49320 | 17.82756 | 36131 ft | 459 kts | 310° |
| 2026-04-27 11:48 | 42.53640 | 17.76366 | 36131 ft | 459 kts | 310° |
| 2026-04-27 11:48 | 42.57961 | 17.69961 | 36136 ft | 459 kts | 310° |
| 2026-04-27 11:49 | 42.62267 | 17.63564 | 36130 ft | 459 kts | 310° |
| 2026-04-27 11:49 | 42.66568 | 17.57159 | 36131 ft | 459 kts | 310° |
| 2026-04-27 11:50 | 42.70837 | 17.50790 | 36132 ft | 459 kts | 310° |
| 2026-04-27 11:50 | 42.75140 | 17.44354 | 36136 ft | 459 kts | 310° |
| 2026-04-27 11:51 | 42.79433 | 17.37920 | 36129 ft | 460 kts | 310° |
| 2026-04-27 11:52 | 42.85886 | 17.28221 | 36135 ft | 460 kts | 310° |
| 2026-04-27 11:52 | 42.90177 | 17.21753 | 36135 ft | 460 kts | 310° |
| 2026-04-27 11:53 | 42.94452 | 17.15296 | 36137 ft | 460 kts | 310° |
| 2026-04-27 11:53 | 42.98741 | 17.08802 | 36138 ft | 461 kts | 310° |
| 2026-04-27 11:54 | 43.03044 | 17.02272 | 36141 ft | 461 kts | 310° |
| 2026-04-27 11:54 | 43.07339 | 16.95740 | 36136 ft | 461 kts | 310° |
| 2026-04-27 11:55 | 43.11623 | 16.89209 | 36137 ft | 461 kts | 310° |
| 2026-04-27 11:55 | 43.15910 | 16.82659 | 36135 ft | 461 kts | 310° |
| 2026-04-27 11:56 | 43.20159 | 16.76154 | 36127 ft | 461 kts | 310° |
| 2026-04-27 11:56 | 43.24435 | 16.69591 | 36129 ft | 461 kts | 310° |
| 2026-04-27 11:57 | 43.28717 | 16.63002 | 36133 ft | 461 kts | 310° |
| 2026-04-27 11:57 | 43.32989 | 16.56417 | 36130 ft | 462 kts | 310° |
| 2026-04-27 11:58 | 43.37240 | 16.49848 | 36130 ft | 462 kts | 310° |
| 2026-04-27 11:58 | 43.41511 | 16.43231 | 36124 ft | 462 kts | 310° |
| 2026-04-27 11:59 | 43.45773 | 16.36613 | 36135 ft | 462 kts | 311° |
| 2026-04-27 11:59 | 43.50023 | 16.29959 | 36144 ft | 462 kts | 309° |
| 2026-04-27 12:00 | 43.54009 | 16.22997 | 36131 ft | 462 kts | 307° |
| 2026-04-27 12:00 | 43.57907 | 16.15998 | 36137 ft | 462 kts | 307° |
| 2026-04-27 12:01 | 43.61832 | 16.08955 | 36133 ft | 462 kts | 307° |
| 2026-04-27 12:01 | 43.65759 | 16.01926 | 36132 ft | 462 kts | 308° |
| 2026-04-27 12:02 | 43.69697 | 15.94877 | 36117 ft | 463 kts | 308° |
| 2026-04-27 12:02 | 43.73602 | 15.87870 | 36117 ft | 463 kts | 308° |
| 2026-04-27 12:03 | 43.77532 | 15.80801 | 36120 ft | 463 kts | 308° |
| 2026-04-27 12:03 | 43.81457 | 15.73722 | 36119 ft | 463 kts | 308° |
| 2026-04-27 12:04 | 43.85378 | 15.66633 | 36124 ft | 463 kts | 308° |
| 2026-04-27 12:04 | 43.89267 | 15.59585 | 36121 ft | 463 kts | 308° |
| 2026-04-27 12:05 | 43.93178 | 15.52482 | 36130 ft | 463 kts | 308° |
| 2026-04-27 12:05 | 43.97084 | 15.45368 | 36134 ft | 463 kts | 308° |
| 2026-04-27 12:06 | 44.00984 | 15.38248 | 36133 ft | 463 kts | 308° |
| 2026-04-27 12:06 | 44.04881 | 15.31116 | 36141 ft | 463 kts | 308° |
| 2026-04-27 12:07 | 44.08752 | 15.24015 | 36128 ft | 464 kts | 308° |
| 2026-04-27 12:07 | 44.12642 | 15.16861 | 36133 ft | 463 kts | 308° |
| 2026-04-27 12:08 | 44.16528 | 15.09698 | 36132 ft | 463 kts | 308° |
| 2026-04-27 12:08 | 44.20413 | 15.02517 | 36129 ft | 463 kts | 308° |
| 2026-04-27 12:09 | 44.24294 | 14.95327 | 36125 ft | 463 kts | 308° |
| 2026-04-27 12:09 | 44.28166 | 14.88136 | 36123 ft | 463 kts | 308° |
| 2026-04-27 12:10 | 44.32013 | 14.80973 | 36123 ft | 463 kts | 308° |
| 2026-04-27 12:10 | 44.35880 | 14.73756 | 36124 ft | 463 kts | 308° |
| 2026-04-27 12:11 | 44.39740 | 14.66531 | 36128 ft | 464 kts | 308° |
| 2026-04-27 12:11 | 44.43606 | 14.59280 | 36119 ft | 464 kts | 308° |
| 2026-04-27 12:12 | 44.47444 | 14.52063 | 36119 ft | 465 kts | 308° |
| 2026-04-27 12:12 | 44.51300 | 14.44792 | 36120 ft | 465 kts | 308° |
| 2026-04-27 12:13 | 44.55153 | 14.37508 | 36125 ft | 465 kts | 308° |
| 2026-04-27 12:13 | 44.58977 | 14.30263 | 36122 ft | 465 kts | 308° |
| 2026-04-27 12:14 | 44.62827 | 14.22951 | 36124 ft | 465 kts | 308° |
| 2026-04-27 12:14 | 44.66665 | 14.15640 | 36118 ft | 465 kts | 308° |
| 2026-04-27 12:15 | 44.70502 | 14.08314 | 36123 ft | 465 kts | 307° |
| 2026-04-27 12:15 | 44.74331 | 14.00984 | 36137 ft | 465 kts | 307° |
| 2026-04-27 12:16 | 44.78131 | 13.93692 | 36136 ft | 465 kts | 307° |
| 2026-04-27 12:16 | 44.81951 | 13.86340 | 36138 ft | 465 kts | 307° |
| 2026-04-27 12:17 | 44.85132 | 13.80209 | 36130 ft | 465 kts | 307° |
| 2026-04-27 12:17 | 44.87668 | 13.75308 | 36132 ft | 465 kts | 307° |